sensor_id;sensor_type;location;lat;lon;timestamp;pressure;altitude;pressure_sealevel;temperature;humidity
47913;BME280;33676;51.006;17.180;2022-08-21T00:02:13;99804.59;;;20.20;100.00
47913;BME280;33676;51.006;17.180;2022-08-21T00:04:42;99808.94;;;20.16;100.00
47913;BME280;33676;51.006;17.180;2022-08-21T00:07:25;99809.45;;;20.13;100.00
47913;BME280;33676;51.006;17.180;2022-08-21T00:09:54;99812.01;;;20.10;100.00
47913;BME280;33676;51.006;17.180;2022-08-21T00:12:23;99813.48;;;20.05;100.00
47913;BME280;33676;51.006;17.180;2022-08-21T00:14:51;99813.31;;;20.01;100.00
47913;BME280;33676;51.006;17.180;2022-08-21T00:17:24;99810.86;;;19.97;100.00
47913;BME280;33676;51.006;17.180;2022-08-21T00:19:53;99802.48;;;19.93;100.00
47913;BME280;33676;51.006;17.180;2022-08-21T00:22:21;99798.14;;;19.89;100.00
47913;BME280;33676;51.006;17.180;2022-08-21T00:24:50;99797.58;;;19.87;100.00
47913;BME280;33676;51.006;17.180;2022-08-21T00:27:18;99800.48;;;19.84;100.00
47913;BME280;33676;51.006;17.180;2022-08-21T00:29:46;99807.54;;;19.83;100.00
47913;BME280;33676;51.006;17.180;2022-08-21T00:32:21;99810.39;;;19.81;100.00
47913;BME280;33676;51.006;17.180;2022-08-21T00:34:51;99810.58;;;19.80;100.00
47913;BME280;33676;51.006;17.180;2022-08-21T00:37:20;99813.71;;;19.78;100.00
47913;BME280;33676;51.006;17.180;2022-08-21T00:39:48;99810.85;;;19.78;100.00
47913;BME280;33676;51.006;17.180;2022-08-21T00:42:17;99811.34;;;19.78;100.00
47913;BME280;33676;51.006;17.180;2022-08-21T00:44:48;99812.65;;;19.79;100.00
47913;BME280;33676;51.006;17.180;2022-08-21T00:47:19;99814.63;;;19.79;100.00
47913;BME280;33676;51.006;17.180;2022-08-21T00:49:47;99816.33;;;19.78;100.00
47913;BME280;33676;51.006;17.180;2022-08-21T00:52:22;99815.30;;;19.75;100.00
47913;BME280;33676;51.006;17.180;2022-08-21T00:54:53;99808.84;;;19.72;100.00
47913;BME280;33676;51.006;17.180;2022-08-21T00:57:40;99801.78;;;19.68;100.00
47913;BME280;33676;51.006;17.180;2022-08-21T01:00:17;99794.70;;;19.64;100.00
47913;BME280;33676;51.006;17.180;2022-08-21T01:02:46;99794.56;;;19.60;100.00
47913;BME280;33676;51.006;17.180;2022-08-21T01:05:15;99793.05;;;19.56;100.00
47913;BME280;33676;51.006;17.180;2022-08-21T01:07:45;99793.80;;;19.53;100.00
47913;BME280;33676;51.006;17.180;2022-08-21T01:10:15;99790.40;;;19.50;100.00
47913;BME280;33676;51.006;17.180;2022-08-21T01:12:55;99789.23;;;19.46;100.00
47913;BME280;33676;51.006;17.180;2022-08-21T01:15:30;99779.55;;;19.43;100.00
47913;BME280;33676;51.006;17.180;2022-08-21T01:18:03;99768.36;;;19.42;100.00
47913;BME280;33676;51.006;17.180;2022-08-21T01:20:35;99759.88;;;19.40;100.00
47913;BME280;33676;51.006;17.180;2022-08-21T01:23:05;99755.32;;;19.38;100.00
47913;BME280;33676;51.006;17.180;2022-08-21T01:25:34;99760.00;;;19.36;100.00
47913;BME280;33676;51.006;17.180;2022-08-21T01:28:13;99757.67;;;19.34;100.00
47913;BME280;33676;51.006;17.180;2022-08-21T01:30:43;99751.13;;;19.32;100.00
47913;BME280;33676;51.006;17.180;2022-08-21T01:33:12;99747.70;;;19.30;100.00
47913;BME280;33676;51.006;17.180;2022-08-21T01:35:40;99740.50;;;19.26;100.00
47913;BME280;33676;51.006;17.180;2022-08-21T01:38:09;99740.33;;;19.24;100.00
47913;BME280;33676;51.006;17.180;2022-08-21T01:40:37;99739.66;;;19.21;100.00
47913;BME280;33676;51.006;17.180;2022-08-21T01:43:05;99739.63;;;19.18;100.00
47913;BME280;33676;51.006;17.180;2022-08-21T01:45:34;99741.60;;;19.15;100.00
47913;BME280;33676;51.006;17.180;2022-08-21T01:48:03;99738.87;;;19.12;100.00
47913;BME280;33676;51.006;17.180;2022-08-21T01:50:32;99739.00;;;19.10;100.00
47913;BME280;33676;51.006;17.180;2022-08-21T01:53:00;99740.05;;;19.08;100.00
47913;BME280;33676;51.006;17.180;2022-08-21T01:55:28;99736.41;;;19.08;100.00
47913;BME280;33676;51.006;17.180;2022-08-21T01:57:58;99738.86;;;19.05;100.00
47913;BME280;33676;51.006;17.180;2022-08-21T02:00:27;99735.25;;;19.03;100.00
47913;BME280;33676;51.006;17.180;2022-08-21T02:02:56;99738.36;;;19.01;100.00
47913;BME280;33676;51.006;17.180;2022-08-21T02:05:24;99730.98;;;18.99;100.00
47913;BME280;33676;51.006;17.180;2022-08-21T02:07:56;99728.66;;;18.96;100.00
47913;BME280;33676;51.006;17.180;2022-08-21T02:10:29;99725.84;;;18.93;100.00
47913;BME280;33676;51.006;17.180;2022-08-21T02:13:00;99724.60;;;18.92;100.00
47913;BME280;33676;51.006;17.180;2022-08-21T02:15:30;99722.33;;;18.90;100.00
47913;BME280;33676;51.006;17.180;2022-08-21T02:18:01;99723.79;;;18.88;100.00
47913;BME280;33676;51.006;17.180;2022-08-21T02:20:46;99723.27;;;18.87;100.00
47913;BME280;33676;51.006;17.180;2022-08-21T02:23:15;99718.52;;;18.85;100.00
47913;BME280;33676;51.006;17.180;2022-08-21T02:25:47;99710.52;;;18.82;100.00
47913;BME280;33676;51.006;17.180;2022-08-21T02:28:15;99708.77;;;18.80;100.00
47913;BME280;33676;51.006;17.180;2022-08-21T02:30:47;99705.31;;;18.78;100.00
47913;BME280;33676;51.006;17.180;2022-08-21T02:33:16;99706.02;;;18.75;100.00
47913;BME280;33676;51.006;17.180;2022-08-21T02:35:47;99702.38;;;18.70;100.00
47913;BME280;33676;51.006;17.180;2022-08-21T02:38:21;99699.85;;;18.67;100.00
47913;BME280;33676;51.006;17.180;2022-08-21T02:40:52;99705.11;;;18.63;100.00
47913;BME280;33676;51.006;17.180;2022-08-21T02:43:23;99702.52;;;18.58;100.00
47913;BME280;33676;51.006;17.180;2022-08-21T02:45:54;99703.21;;;18.55;100.00
47913;BME280;33676;51.006;17.180;2022-08-21T02:48:30;99702.32;;;18.51;100.00
47913;BME280;33676;51.006;17.180;2022-08-21T02:51:07;99704.20;;;18.49;100.00
47913;BME280;33676;51.006;17.180;2022-08-21T02:53:37;99703.69;;;18.48;100.00
47913;BME280;33676;51.006;17.180;2022-08-21T02:56:10;99704.11;;;18.46;100.00
47913;BME280;33676;51.006;17.180;2022-08-21T02:58:46;99709.48;;;18.44;100.00
47913;BME280;33676;51.006;17.180;2022-08-21T03:01:15;99715.14;;;18.42;100.00
47913;BME280;33676;51.006;17.180;2022-08-21T03:03:46;99715.19;;;18.40;100.00
47913;BME280;33676;51.006;17.180;2022-08-21T03:06:17;99719.19;;;18.39;100.00
47913;BME280;33676;51.006;17.180;2022-08-21T03:08:46;99720.63;;;18.38;100.00
47913;BME280;33676;51.006;17.180;2022-08-21T03:11:15;99718.54;;;18.37;100.00
47913;BME280;33676;51.006;17.180;2022-08-21T03:13:45;99717.85;;;18.38;100.00
47913;BME280;33676;51.006;17.180;2022-08-21T03:16:14;99714.08;;;18.36;100.00
47913;BME280;33676;51.006;17.180;2022-08-21T03:18:43;99711.05;;;18.36;100.00
47913;BME280;33676;51.006;17.180;2022-08-21T03:21:11;99715.42;;;18.34;100.00
47913;BME280;33676;51.006;17.180;2022-08-21T03:23:41;99712.44;;;18.31;100.00
47913;BME280;33676;51.006;17.180;2022-08-21T03:26:11;99715.04;;;18.27;100.00
47913;BME280;33676;51.006;17.180;2022-08-21T03:28:39;99720.86;;;18.23;100.00
47913;BME280;33676;51.006;17.180;2022-08-21T03:31:08;99721.88;;;18.19;100.00
47913;BME280;33676;51.006;17.180;2022-08-21T03:33:37;99724.17;;;18.16;100.00
47913;BME280;33676;51.006;17.180;2022-08-21T03:36:07;99728.13;;;18.12;100.00
47913;BME280;33676;51.006;17.180;2022-08-21T03:38:38;99730.27;;;18.09;100.00
47913;BME280;33676;51.006;17.180;2022-08-21T03:41:08;99728.39;;;18.06;100.00
47913;BME280;33676;51.006;17.180;2022-08-21T03:43:36;99730.69;;;18.04;100.00
47913;BME280;33676;51.006;17.180;2022-08-21T03:46:06;99731.44;;;18.03;100.00
47913;BME280;33676;51.006;17.180;2022-08-21T03:48:36;99729.77;;;18.00;100.00
47913;BME280;33676;51.006;17.180;2022-08-21T03:51:06;99727.23;;;17.98;100.00
47913;BME280;33676;51.006;17.180;2022-08-21T03:53:35;99731.71;;;17.97;100.00
47913;BME280;33676;51.006;17.180;2022-08-21T03:56:06;99735.63;;;17.97;100.00
47913;BME280;33676;51.006;17.180;2022-08-21T03:58:34;99733.97;;;17.97;100.00
47913;BME280;33676;51.006;17.180;2022-08-21T04:01:05;99732.58;;;17.97;100.00
47913;BME280;33676;51.006;17.180;2022-08-21T04:03:36;99734.56;;;17.97;100.00
47913;BME280;33676;51.006;17.180;2022-08-21T04:06:05;99737.06;;;17.97;100.00
47913;BME280;33676;51.006;17.180;2022-08-21T04:08:34;99737.77;;;17.95;100.00
47913;BME280;33676;51.006;17.180;2022-08-21T04:11:03;99733.02;;;17.95;100.00
47913;BME280;33676;51.006;17.180;2022-08-21T04:13:32;99728.71;;;17.96;100.00
47913;BME280;33676;51.006;17.180;2022-08-21T04:16:00;99726.05;;;17.97;100.00
47913;BME280;33676;51.006;17.180;2022-08-21T04:18:29;99726.27;;;17.97;100.00
47913;BME280;33676;51.006;17.180;2022-08-21T04:20:58;99728.09;;;17.98;100.00
47913;BME280;33676;51.006;17.180;2022-08-21T04:23:27;99733.37;;;17.98;100.00
47913;BME280;33676;51.006;17.180;2022-08-21T04:25:56;99740.32;;;17.99;100.00
47913;BME280;33676;51.006;17.180;2022-08-21T04:28:26;99737.65;;;18.01;100.00
47913;BME280;33676;51.006;17.180;2022-08-21T04:30:58;99739.54;;;18.01;100.00
47913;BME280;33676;51.006;17.180;2022-08-21T04:33:26;99742.05;;;18.03;100.00
47913;BME280;33676;51.006;17.180;2022-08-21T04:35:55;99745.58;;;18.04;100.00
47913;BME280;33676;51.006;17.180;2022-08-21T04:38:24;99740.16;;;18.05;100.00
47913;BME280;33676;51.006;17.180;2022-08-21T04:40:52;99728.40;;;18.04;100.00
47913;BME280;33676;51.006;17.180;2022-08-21T04:43:21;99728.58;;;18.06;100.00
47913;BME280;33676;51.006;17.180;2022-08-21T04:45:52;99729.94;;;18.06;100.00
47913;BME280;33676;51.006;17.180;2022-08-21T04:48:22;99734.98;;;18.07;100.00
47913;BME280;33676;51.006;17.180;2022-08-21T04:51:17;99733.65;;;18.06;100.00
47913;BME280;33676;51.006;17.180;2022-08-21T04:54:03;99738.78;;;18.08;100.00
47913;BME280;33676;51.006;17.180;2022-08-21T04:56:42;99742.85;;;18.09;100.00
47913;BME280;33676;51.006;17.180;2022-08-21T04:59:39;99745.96;;;18.10;100.00
47913;BME280;33676;51.006;17.180;2022-08-21T05:02:06;99754.55;;;18.10;100.00
47913;BME280;33676;51.006;17.180;2022-08-21T05:04:43;99758.90;;;18.12;100.00
47913;BME280;33676;51.006;17.180;2022-08-21T05:07:19;99766.54;;;18.15;100.00
47913;BME280;33676;51.006;17.180;2022-08-21T05:10:09;99764.38;;;18.15;100.00
47913;BME280;33676;51.006;17.180;2022-08-21T05:12:41;99761.18;;;18.17;100.00
47913;BME280;33676;51.006;17.180;2022-08-21T05:15:12;99756.95;;;18.18;100.00
47913;BME280;33676;51.006;17.180;2022-08-21T05:17:41;99759.37;;;18.19;100.00
47913;BME280;33676;51.006;17.180;2022-08-21T05:20:11;99757.45;;;18.20;100.00
47913;BME280;33676;51.006;17.180;2022-08-21T05:22:40;99757.21;;;18.22;100.00
47913;BME280;33676;51.006;17.180;2022-08-21T05:25:10;99762.13;;;18.22;100.00
47913;BME280;33676;51.006;17.180;2022-08-21T05:27:40;99766.14;;;18.23;100.00
47913;BME280;33676;51.006;17.180;2022-08-21T05:30:10;99776.35;;;18.23;100.00
47913;BME280;33676;51.006;17.180;2022-08-21T05:32:39;99782.02;;;18.23;100.00
47913;BME280;33676;51.006;17.180;2022-08-21T05:35:08;99782.39;;;18.23;100.00
47913;BME280;33676;51.006;17.180;2022-08-21T05:37:36;99781.07;;;18.25;100.00
47913;BME280;33676;51.006;17.180;2022-08-21T05:40:06;99782.48;;;18.27;100.00
47913;BME280;33676;51.006;17.180;2022-08-21T05:42:52;99781.87;;;18.29;100.00
47913;BME280;33676;51.006;17.180;2022-08-21T05:45:28;99789.19;;;18.30;100.00
47913;BME280;33676;51.006;17.180;2022-08-21T05:48:16;99792.67;;;18.30;100.00
47913;BME280;33676;51.006;17.180;2022-08-21T05:50:48;99799.42;;;18.32;100.00
47913;BME280;33676;51.006;17.180;2022-08-21T05:53:19;99800.20;;;18.31;100.00
47913;BME280;33676;51.006;17.180;2022-08-21T05:55:49;99798.20;;;18.28;100.00
47913;BME280;33676;51.006;17.180;2022-08-21T05:58:21;99796.45;;;18.27;100.00
47913;BME280;33676;51.006;17.180;2022-08-21T06:00:52;99799.07;;;18.24;100.00
47913;BME280;33676;51.006;17.180;2022-08-21T06:03:40;99803.03;;;18.22;100.00
47913;BME280;33676;51.006;17.180;2022-08-21T06:06:09;99803.17;;;18.19;100.00
47913;BME280;33676;51.006;17.180;2022-08-21T06:08:38;99795.46;;;18.16;100.00
47913;BME280;33676;51.006;17.180;2022-08-21T06:11:16;99789.80;;;18.13;100.00
47913;BME280;33676;51.006;17.180;2022-08-21T06:13:47;99793.46;;;18.09;100.00
47913;BME280;33676;51.006;17.180;2022-08-21T06:16:16;99796.81;;;18.05;100.00
47913;BME280;33676;51.006;17.180;2022-08-21T06:18:51;99815.34;;;18.00;100.00
47913;BME280;33676;51.006;17.180;2022-08-21T06:21:20;99829.72;;;17.96;100.00
47913;BME280;33676;51.006;17.180;2022-08-21T06:23:48;99841.30;;;17.93;100.00
47913;BME280;33676;51.006;17.180;2022-08-21T06:26:17;99846.26;;;17.92;100.00
47913;BME280;33676;51.006;17.180;2022-08-21T06:28:46;99845.88;;;17.91;100.00
47913;BME280;33676;51.006;17.180;2022-08-21T06:31:20;99845.64;;;17.89;100.00
47913;BME280;33676;51.006;17.180;2022-08-21T06:33:49;99837.98;;;17.88;100.00
47913;BME280;33676;51.006;17.180;2022-08-21T06:36:19;99840.78;;;17.87;100.00
47913;BME280;33676;51.006;17.180;2022-08-21T06:38:49;99840.80;;;17.85;100.00
47913;BME280;33676;51.006;17.180;2022-08-21T06:41:20;99846.93;;;17.84;100.00
47913;BME280;33676;51.006;17.180;2022-08-21T06:43:55;99848.31;;;17.83;100.00
47913;BME280;33676;51.006;17.180;2022-08-21T06:46:28;99853.98;;;17.81;100.00
47913;BME280;33676;51.006;17.180;2022-08-21T06:49:00;99857.02;;;17.79;100.00
47913;BME280;33676;51.006;17.180;2022-08-21T06:51:29;99860.51;;;17.77;100.00
47913;BME280;33676;51.006;17.180;2022-08-21T06:53:57;99861.48;;;17.74;100.00
47913;BME280;33676;51.006;17.180;2022-08-21T06:56:26;99863.16;;;17.72;100.00
47913;BME280;33676;51.006;17.180;2022-08-21T06:58:55;99863.40;;;17.70;100.00
47913;BME280;33676;51.006;17.180;2022-08-21T07:01:26;99867.57;;;17.68;100.00
47913;BME280;33676;51.006;17.180;2022-08-21T07:03:55;99871.80;;;17.65;100.00
47913;BME280;33676;51.006;17.180;2022-08-21T07:06:24;99873.30;;;17.61;100.00
47913;BME280;33676;51.006;17.180;2022-08-21T07:08:53;99875.54;;;17.57;100.00
47913;BME280;33676;51.006;17.180;2022-08-21T07:11:26;99882.06;;;17.50;100.00
47913;BME280;33676;51.006;17.180;2022-08-21T07:13:55;99884.09;;;17.42;100.00
47913;BME280;33676;51.006;17.180;2022-08-21T07:16:24;99885.52;;;17.33;100.00
47913;BME280;33676;51.006;17.180;2022-08-21T07:18:53;99888.08;;;17.21;100.00
47913;BME280;33676;51.006;17.180;2022-08-21T07:21:25;99888.21;;;17.08;100.00
47913;BME280;33676;51.006;17.180;2022-08-21T07:23:57;99888.42;;;16.96;100.00
47913;BME280;33676;51.006;17.180;2022-08-21T07:26:25;99887.81;;;16.85;100.00
47913;BME280;33676;51.006;17.180;2022-08-21T07:28:54;99881.73;;;16.76;100.00
47913;BME280;33676;51.006;17.180;2022-08-21T07:31:26;99879.17;;;16.69;100.00
47913;BME280;33676;51.006;17.180;2022-08-21T07:33:55;99880.40;;;16.61;100.00
47913;BME280;33676;51.006;17.180;2022-08-21T07:36:24;99896.10;;;16.50;100.00
47913;BME280;33676;51.006;17.180;2022-08-21T07:38:53;99909.96;;;16.38;100.00
47913;BME280;33676;51.006;17.180;2022-08-21T07:41:26;99918.08;;;16.23;100.00
47913;BME280;33676;51.006;17.180;2022-08-21T07:43:58;99915.27;;;16.10;100.00
47913;BME280;33676;51.006;17.180;2022-08-21T07:46:28;99911.61;;;16.01;100.00
47913;BME280;33676;51.006;17.180;2022-08-21T07:48:56;99904.61;;;15.96;100.00
47913;BME280;33676;51.006;17.180;2022-08-21T07:51:28;99905.83;;;15.91;100.00
47913;BME280;33676;51.006;17.180;2022-08-21T07:53:58;99907.64;;;15.89;100.00
47913;BME280;33676;51.006;17.180;2022-08-21T07:56:29;99921.36;;;15.87;100.00
47913;BME280;33676;51.006;17.180;2022-08-21T07:58:58;99920.10;;;15.88;100.00
47913;BME280;33676;51.006;17.180;2022-08-21T08:01:26;99919.48;;;15.88;100.00
47913;BME280;33676;51.006;17.180;2022-08-21T08:03:56;99921.39;;;15.91;100.00
47913;BME280;33676;51.006;17.180;2022-08-21T08:06:24;99930.09;;;15.92;100.00
47913;BME280;33676;51.006;17.180;2022-08-21T08:08:54;99925.96;;;15.93;100.00
47913;BME280;33676;51.006;17.180;2022-08-21T08:11:23;99927.78;;;15.94;100.00
47913;BME280;33676;51.006;17.180;2022-08-21T08:13:52;99930.86;;;15.95;100.00
47913;BME280;33676;51.006;17.180;2022-08-21T08:16:20;99929.83;;;15.96;100.00
47913;BME280;33676;51.006;17.180;2022-08-21T08:18:49;99923.89;;;15.96;100.00
47913;BME280;33676;51.006;17.180;2022-08-21T08:21:18;99921.18;;;15.96;100.00
47913;BME280;33676;51.006;17.180;2022-08-21T08:23:49;99921.14;;;15.96;100.00
47913;BME280;33676;51.006;17.180;2022-08-21T08:26:18;99927.23;;;15.96;100.00
47913;BME280;33676;51.006;17.180;2022-08-21T08:28:46;99930.86;;;15.95;100.00
47913;BME280;33676;51.006;17.180;2022-08-21T08:31:15;99928.84;;;15.94;100.00
47913;BME280;33676;51.006;17.180;2022-08-21T08:33:44;99932.48;;;15.94;100.00
47913;BME280;33676;51.006;17.180;2022-08-21T08:36:17;99931.55;;;15.95;100.00
47913;BME280;33676;51.006;17.180;2022-08-21T08:38:47;99934.77;;;15.98;100.00
47913;BME280;33676;51.006;17.180;2022-08-21T08:41:19;99936.95;;;16.00;100.00
47913;BME280;33676;51.006;17.180;2022-08-21T08:43:54;99937.55;;;16.03;100.00
47913;BME280;33676;51.006;17.180;2022-08-21T08:46:50;99945.53;;;16.07;100.00
47913;BME280;33676;51.006;17.180;2022-08-21T08:49:41;99946.15;;;16.14;100.00
47913;BME280;33676;51.006;17.180;2022-08-21T08:52:43;99945.98;;;16.24;100.00
47913;BME280;33676;51.006;17.180;2022-08-21T08:55:28;99947.99;;;16.32;100.00
47913;BME280;33676;51.006;17.180;2022-08-21T08:57:58;99951.34;;;16.34;100.00
47913;BME280;33676;51.006;17.180;2022-08-21T09:00:26;99948.16;;;16.35;100.00
47913;BME280;33676;51.006;17.180;2022-08-21T09:02:57;99946.44;;;16.35;100.00
47913;BME280;33676;51.006;17.180;2022-08-21T09:05:47;99948.71;;;16.37;100.00
47913;BME280;33676;51.006;17.180;2022-08-21T09:11:37;99958.77;;;16.35;100.00
47913;BME280;33676;51.006;17.180;2022-08-21T09:17:59;99959.48;;;16.25;100.00
47913;BME280;33676;51.006;17.180;2022-08-21T09:23:57;99967.35;;;16.13;100.00
47913;BME280;33676;51.006;17.180;2022-08-21T09:29:44;99963.15;;;16.06;100.00
47913;BME280;33676;51.006;17.180;2022-08-21T09:32:23;99962.62;;;16.04;100.00
47913;BME280;33676;51.006;17.180;2022-08-21T09:35:17;99964.02;;;16.04;100.00
47913;BME280;33676;51.006;17.180;2022-08-21T09:37:54;99966.28;;;16.05;100.00
47913;BME280;33676;51.006;17.180;2022-08-21T09:45:42;99961.66;;;16.05;100.00
47913;BME280;33676;51.006;17.180;2022-08-21T09:48:22;99961.52;;;16.01;100.00
47913;BME280;33676;51.006;17.180;2022-08-21T09:51:06;99958.61;;;15.97;100.00
47913;BME280;33676;51.006;17.180;2022-08-21T09:53:42;99959.15;;;15.94;100.00
47913;BME280;33676;51.006;17.180;2022-08-21T09:56:32;99964.59;;;15.89;100.00
47913;BME280;33676;51.006;17.180;2022-08-21T09:59:32;99963.11;;;15.83;100.00
47913;BME280;33676;51.006;17.180;2022-08-21T10:02:29;99955.63;;;15.80;100.00
47913;BME280;33676;51.006;17.180;2022-08-21T10:05:24;99956.44;;;15.81;100.00
47913;BME280;33676;51.006;17.180;2022-08-21T10:07:53;99961.73;;;15.82;100.00
47913;BME280;33676;51.006;17.180;2022-08-21T10:10:30;99964.21;;;15.84;100.00
47913;BME280;33676;51.006;17.180;2022-08-21T10:16:46;99964.36;;;15.82;100.00
47913;BME280;33676;51.006;17.180;2022-08-21T10:19:48;99959.94;;;15.79;100.00
47913;BME280;33676;51.006;17.180;2022-08-21T10:25:41;99963.29;;;15.83;100.00
47913;BME280;33676;51.006;17.180;2022-08-21T10:28:54;99959.23;;;15.88;100.00
47913;BME280;33676;51.006;17.180;2022-08-21T10:38:02;99948.80;;;16.15;100.00
47913;BME280;33676;51.006;17.180;2022-08-21T10:41:03;99947.54;;;16.21;100.00
47913;BME280;33676;51.006;17.180;2022-08-21T10:47:10;99946.64;;;16.33;100.00
47913;BME280;33676;51.006;17.180;2022-08-21T10:50:16;99948.41;;;16.36;100.00
47913;BME280;33676;51.006;17.180;2022-08-21T10:53:29;99952.13;;;16.41;100.00
47913;BME280;33676;51.006;17.180;2022-08-21T10:59:36;99962.51;;;16.36;100.00
47913;BME280;33676;51.006;17.180;2022-08-21T11:02:30;99959.52;;;16.30;100.00
47913;BME280;33676;51.006;17.180;2022-08-21T11:05:15;99964.35;;;16.27;100.00
47913;BME280;33676;51.006;17.180;2022-08-21T11:07:49;99962.70;;;16.27;100.00
47913;BME280;33676;51.006;17.180;2022-08-21T11:10:28;99966.30;;;16.24;100.00
47913;BME280;33676;51.006;17.180;2022-08-21T11:13:11;99960.17;;;16.22;100.00
47913;BME280;33676;51.006;17.180;2022-08-21T11:15:56;99961.07;;;16.21;100.00
47913;BME280;33676;51.006;17.180;2022-08-21T11:18:39;99959.62;;;16.24;100.00
47913;BME280;33676;51.006;17.180;2022-08-21T11:21:34;99960.19;;;16.27;100.00
47913;BME280;33676;51.006;17.180;2022-08-21T11:27:06;99968.23;;;16.32;100.00
47913;BME280;33676;51.006;17.180;2022-08-21T11:29:40;99968.59;;;16.32;100.00
47913;BME280;33676;51.006;17.180;2022-08-21T11:32:57;99964.17;;;16.32;100.00
47913;BME280;33676;51.006;17.180;2022-08-21T11:35:49;99967.23;;;16.32;100.00
47913;BME280;33676;51.006;17.180;2022-08-21T11:38:35;99966.31;;;16.32;100.00
47913;BME280;33676;51.006;17.180;2022-08-21T11:41:28;99968.60;;;16.32;100.00
47913;BME280;33676;51.006;17.180;2022-08-21T11:44:11;99961.58;;;16.32;100.00
47913;BME280;33676;51.006;17.180;2022-08-21T11:47:09;99962.38;;;16.34;100.00
47913;BME280;33676;51.006;17.180;2022-08-21T11:50:11;99961.78;;;16.36;100.00
47913;BME280;33676;51.006;17.180;2022-08-21T11:56:22;99963.85;;;16.48;100.00
47913;BME280;33676;51.006;17.180;2022-08-21T11:59:02;99969.45;;;16.52;100.00
47913;BME280;33676;51.006;17.180;2022-08-21T12:01:37;99976.13;;;16.54;100.00
47913;BME280;33676;51.006;17.180;2022-08-21T12:04:31;99973.34;;;16.57;100.00
47913;BME280;33676;51.006;17.180;2022-08-21T12:07:16;99970.52;;;16.61;100.00
47913;BME280;33676;51.006;17.180;2022-08-21T12:09:54;99965.27;;;16.63;100.00
47913;BME280;33676;51.006;17.180;2022-08-21T12:12:27;99967.39;;;16.68;100.00
47913;BME280;33676;51.006;17.180;2022-08-21T12:15:24;99961.86;;;16.72;100.00
47913;BME280;33676;51.006;17.180;2022-08-21T12:18:19;99970.96;;;16.76;100.00
47913;BME280;33676;51.006;17.180;2022-08-21T12:21:25;99967.59;;;16.79;100.00
47913;BME280;33676;51.006;17.180;2022-08-21T12:26:58;99966.66;;;16.89;100.00
47913;BME280;33676;51.006;17.180;2022-08-21T12:29:36;99969.44;;;16.93;100.00
47913;BME280;33676;51.006;17.180;2022-08-21T12:34:55;99960.06;;;16.99;100.00
47913;BME280;33676;51.006;17.180;2022-08-21T12:37:37;99960.33;;;17.00;100.00
47913;BME280;33676;51.006;17.180;2022-08-21T12:42:54;99959.50;;;16.98;100.00
47913;BME280;33676;51.006;17.180;2022-08-21T12:45:39;99954.50;;;17.00;100.00
47913;BME280;33676;51.006;17.180;2022-08-21T12:51:38;99957.80;;;17.09;100.00
47913;BME280;33676;51.006;17.180;2022-08-21T12:53:52;99959.61;;;17.13;100.00
47913;BME280;33676;51.006;17.180;2022-08-21T12:56:32;99962.13;;;17.16;100.00
47913;BME280;33676;51.006;17.180;2022-08-21T12:59:07;99961.18;;;17.19;100.00
47913;BME280;33676;51.006;17.180;2022-08-21T13:01:46;99963.89;;;17.22;100.00
47913;BME280;33676;51.006;17.180;2022-08-21T13:04:21;99965.77;;;17.24;100.00
47913;BME280;33676;51.006;17.180;2022-08-21T13:06:59;99965.67;;;17.24;100.00
47913;BME280;33676;51.006;17.180;2022-08-21T13:09:30;99964.52;;;17.23;100.00
47913;BME280;33676;51.006;17.180;2022-08-21T13:11:59;99971.25;;;17.21;100.00
47913;BME280;33676;51.006;17.180;2022-08-21T13:14:39;99970.52;;;17.19;100.00
47913;BME280;33676;51.006;17.180;2022-08-21T13:17:17;99970.23;;;17.17;100.00
47913;BME280;33676;51.006;17.180;2022-08-21T13:20:07;99966.65;;;17.17;100.00
47913;BME280;33676;51.006;17.180;2022-08-21T13:22:42;99964.29;;;17.20;100.00
47913;BME280;33676;51.006;17.180;2022-08-21T13:25:18;99964.89;;;17.23;100.00
47913;BME280;33676;51.006;17.180;2022-08-21T13:28:12;99964.61;;;17.25;100.00
47913;BME280;33676;51.006;17.180;2022-08-21T13:30:53;99968.14;;;17.28;100.00
47913;BME280;33676;51.006;17.180;2022-08-21T13:33:34;99968.88;;;17.30;100.00
47913;BME280;33676;51.006;17.180;2022-08-21T13:36:20;99967.72;;;17.31;100.00
47913;BME280;33676;51.006;17.180;2022-08-21T13:38:53;99965.63;;;17.32;100.00
47913;BME280;33676;51.006;17.180;2022-08-21T13:41:28;99965.59;;;17.34;100.00
47913;BME280;33676;51.006;17.180;2022-08-21T13:44:03;99969.29;;;17.37;100.00
47913;BME280;33676;51.006;17.180;2022-08-21T13:46:37;99963.89;;;17.40;100.00
47913;BME280;33676;51.006;17.180;2022-08-21T13:49:08;99966.79;;;17.42;100.00
47913;BME280;33676;51.006;17.180;2022-08-21T13:51:38;99970.63;;;17.46;100.00
47913;BME280;33676;51.006;17.180;2022-08-21T13:54:39;99971.11;;;17.49;100.00
47913;BME280;33676;51.006;17.180;2022-08-21T13:57:24;99970.30;;;17.51;100.00
47913;BME280;33676;51.006;17.180;2022-08-21T14:02:48;99970.09;;;17.57;100.00
47913;BME280;33676;51.006;17.180;2022-08-21T14:05:27;99966.27;;;17.58;100.00
47913;BME280;33676;51.006;17.180;2022-08-21T14:08:18;99971.63;;;17.60;100.00
47913;BME280;33676;51.006;17.180;2022-08-21T14:11:00;99967.79;;;17.65;100.00
47913;BME280;33676;51.006;17.180;2022-08-21T14:13:49;99967.35;;;17.67;100.00
47913;BME280;33676;51.006;17.180;2022-08-21T14:16:27;99967.23;;;17.68;100.00
47913;BME280;33676;51.006;17.180;2022-08-21T14:21:36;99970.93;;;17.70;100.00
47913;BME280;33676;51.006;17.180;2022-08-21T14:27:17;99971.63;;;17.70;100.00